Terminal Aerodrome Forecast
Issued by NWS

Home | Current Version | Previous Version | Text Only | Print | Product List | Glossary On
Versions: 1 2 3 4 5 6 7 8 9 10 11 12
047
FTUS45 KABQ 111720
TAFLVS
TAF
KLVS 111720Z 1118/1218 23010KT P6SM FEW250
     FM120300 02006KT P6SM SKC
     FM121200 VRB06KT P6SM SKC
     FM121600 18010KT P6SM SKC=

USA.gov is the U.S. government's official web portal to all federal, state and local government web resources and services.